Time;durP1;ratioP1;P1;durP2;ratioP2;P2;SDS_P1;SDS_P2;PMS_P1;PMS_P2;Temp;Humidity;BMP_temperature;BMP_pressure;BME280_temperature;BME280_humidity;BME280_pressure;Samples;Min_cycle;Max_cycle;Signal;HPM_P1;HPM_P2
2023/02/20 00:00:47;;;;;;;9.30;4.30;;;5.10;99.90;;;;;;5014290;28;20048;-57
2023/02/20 00:03:14;;;;;;;8.40;3.87;;;5.00;99.90;;;;;;5014399;28;20494;-58
2023/02/20 00:05:40;;;;;;;9.47;4.40;;;5.00;99.90;;;;;;5013172;28;20084;-58
2023/02/20 00:08:05;;;;;;;9.07;4.17;;;5.00;99.90;;;;;;5014049;28;20038;-58
2023/02/20 00:10:31;;;;;;;10.87;4.50;;;5.00;99.90;;;;;;5014139;28;20064;-57
2023/02/20 00:12:57;;;;;;;10.37;4.33;;;4.90;99.90;;;;;;5014370;28;20038;-55
2023/02/20 00:15:22;;;;;;;10.47;5.07;;;4.90;99.90;;;;;;5014135;28;20215;-57
2023/02/20 00:17:49;;;;;;;12.90;5.97;;;5.00;99.90;;;;;;5013739;28;20080;-56
2023/02/20 00:20:17;;;;;;;12.63;5.00;;;5.00;99.90;;;;;;5014188;28;20165;-56
2023/02/20 00:22:43;;;;;;;12.17;5.73;;;5.00;99.90;;;;;;5014109;28;20586;-56
2023/02/20 00:25:09;;;;;;;13.90;5.97;;;5.00;99.90;;;;;;5014072;28;20037;-58
2023/02/20 00:27:35;;;;;;;12.33;6.27;;;4.90;99.90;;;;;;5013648;28;20026;-58
2023/02/20 00:30:01;;;;;;;15.50;7.17;;;4.90;99.90;;;;;;5012560;28;20111;-58
2023/02/20 00:32:26;;;;;;;16.47;7.77;;;5.00;99.90;;;;;;5013766;28;20026;-58
2023/02/20 00:34:52;;;;;;;16.07;7.70;;;5.00;99.90;;;;;;5013675;28;20029;-58
2023/02/20 00:37:18;;;;;;;18.33;8.40;;;5.00;99.90;;;;;;5013620;28;20060;-57
2023/02/20 00:39:43;;;;;;;17.10;7.57;;;5.00;99.90;;;;;;5013797;28;20029;-57
2023/02/20 00:42:09;;;;;;;17.33;7.93;;;5.10;99.90;;;;;;5013604;28;20041;-57
2023/02/20 00:44:37;;;;;;;16.47;7.87;;;5.10;99.90;;;;;;5013376;28;20545;-57
2023/02/20 00:47:03;;;;;;;19.17;9.43;;;5.20;99.90;;;;;;5012226;28;20042;-57
2023/02/20 00:49:29;;;;;;;20.10;8.93;;;5.30;99.90;;;;;;5013454;28;20025;-57
2023/02/20 00:52:07;;;;;;;19.87;8.83;;;5.30;99.90;;;;;;5013517;28;20475;-58
2023/02/20 00:54:34;;;;;;;20.73;9.40;;;5.40;99.90;;;;;;4995613;28;20030;-57
2023/02/20 00:56:59;;;;;;;17.27;8.43;;;5.40;99.90;;;;;;5013265;28;20060;-57
2023/02/20 00:59:25;;;;;;;18.37;8.97;;;5.50;99.90;;;;;;4994914;28;20041;-57
2023/02/20 01:01:51;;;;;;;18.93;9.70;;;5.50;99.90;;;;;;5012834;28;20026;-56
2023/02/20 01:04:18;;;;;;;18.10;9.40;;;5.50;99.90;;;;;;5011910;28;20061;-57
2023/02/20 01:06:44;;;;;;;21.10;10.30;;;5.50;99.90;;;;;;5011962;28;20034;-58
2023/02/20 01:09:11;;;;;;;15.97;9.10;;;5.70;99.90;;;;;;5013080;28;20126;-59
2023/02/20 01:11:37;;;;;;;18.93;9.90;;;5.60;99.90;;;;;;5011724;28;20076;-57
2023/02/20 01:14:03;;;;;;;18.10;9.33;;;5.60;99.90;;;;;;5011566;28;20482;-58
2023/02/20 01:16:29;;;;;;;18.30;9.27;;;5.60;99.90;;;;;;4995319;28;20045;-58
2023/02/20 01:18:55;;;;;;;20.20;9.60;;;5.60;99.90;;;;;;5012949;28;20510;-58
2023/02/20 01:21:22;;;;;;;23.73;9.77;;;5.60;99.90;;;;;;5012969;28;20034;-57
2023/02/20 01:23:48;;;;;;;18.37;9.67;;;5.60;99.90;;;;;;5011722;28;20083;-57
2023/02/20 01:26:14;;;;;;;20.73;9.60;;;5.60;99.90;;;;;;4995326;28;20057;-57
2023/02/20 01:28:44;;;;;;;21.53;9.73;;;5.60;99.90;;;;;;5011376;28;20379;-57
2023/02/20 01:31:10;;;;;;;22.30;9.63;;;5.60;99.90;;;;;;5011522;28;20099;-57
2023/02/20 01:33:38;;;;;;;21.80;9.60;;;5.60;99.90;;;;;;5012590;28;20124;-57
2023/02/20 01:36:05;;;;;;;21.38;10.63;;;5.60;99.90;;;;;;4995236;28;20036;-57
2023/02/20 01:38:31;;;;;;;19.40;9.90;;;5.60;99.90;;;;;;4994882;28;20100;-57
2023/02/20 01:40:57;;;;;;;22.40;10.40;;;5.60;99.90;;;;;;5011241;28;20084;-57
2023/02/20 01:43:24;;;;;;;17.93;9.53;;;5.60;99.90;;;;;;4994815;28;20037;-57
2023/02/20 01:45:49;;;;;;;19.23;9.87;;;5.60;99.90;;;;;;4994904;28;20030;-57
2023/02/20 01:48:24;;;;;;;20.00;10.27;;;5.60;99.90;;;;;;5012362;28;20040;-57
2023/02/20 01:50:59;;;;;;;25.23;10.33;;;5.50;99.90;;;;;;4994698;28;20093;-57
2023/02/20 01:53:28;;;;;;;20.33;10.60;;;5.50;99.90;;;;;;5012241;28;20026;-57
2023/02/20 01:55:57;;;;;;;;;;;5.60;99.90;;;;;;5012896;28;20118;-57
2023/02/20 01:58:40;;;;;;;22.67;10.07;;;5.60;99.90;;;;;;5010901;28;20008;-58
2023/02/20 02:01:09;;;;;;;20.27;10.50;;;5.60;99.90;;;;;;5012183;28;20029;-57
2023/02/20 02:03:39;;;;;;;20.57;9.93;;;5.60;99.90;;;;;;4994339;28;20026;-57
2023/02/20 02:06:06;;;;;;;17.27;9.73;;;5.60;99.90;;;;;;5012058;28;20056;-57
2023/02/20 02:08:35;;;;;;;20.87;10.03;;;5.60;99.90;;;;;;5011835;28;20037;-56
2023/02/20 02:11:01;;;;;;;23.47;10.50;;;5.60;99.90;;;;;;5011681;28;20041;-57
2023/02/20 02:13:27;;;;;;;22.43;10.80;;;5.70;99.90;;;;;;4994358;28;20030;-57
2023/02/20 02:16:05;;;;;;;21.50;11.63;;;5.70;99.90;;;;;;5011920;28;20491;-57
2023/02/20 02:19:22;;;;;;;20.53;10.93;;;5.60;99.90;;;;;;4994068;28;20092;-57
2023/02/20 02:22:12;;;;;;;20.80;10.30;;;5.60;99.90;;;;;;4970379;28;20121;-58
2023/02/20 02:25:16;;;;;;;22.63;10.47;;;5.60;99.90;;;;;;4993914;28;20072;-58
2023/02/20 02:28:02;;;;;;;24.60;11.50;;;5.60;99.90;;;;;;4953898;28;20038;-56
2023/02/20 02:30:47;;;;;;;19.20;10.53;;;5.50;99.90;;;;;;5007954;28;20052;-57
2023/02/20 02:33:33;;;;;;;22.20;11.63;;;5.50;99.90;;;;;;5011721;28;20398;-57
2023/02/20 02:36:30;;;;;;;22.03;11.90;;;5.40;99.90;;;;;;5011722;28;20364;-57
2023/02/20 02:39:20;;;;;;;23.87;11.20;;;5.40;99.90;;;;;;4993920;28;20038;-58
2023/02/20 02:42:27;;;;;;;22.87;12.07;;;5.40;99.90;;;;;;5011553;28;20498;-57
2023/02/20 02:45:15;;;;;;;25.20;12.43;;;5.40;99.90;;;;;;4988531;28;20042;-57
2023/02/20 02:47:58;;;;;;;26.50;12.30;;;5.30;99.90;;;;;;5011185;28;20065;-57
2023/02/20 02:50:35;;;;;;;25.80;12.63;;;5.30;99.90;;;;;;5011449;28;20853;-58
2023/02/20 02:53:07;;;;;;;25.80;12.30;;;5.30;99.90;;;;;;4993831;28;20068;-58
2023/02/20 02:55:34;;;;;;;26.20;13.17;;;5.30;99.90;;;;;;4993704;28;20084;-57
2023/02/20 02:58:00;;;;;;;25.83;12.30;;;5.30;99.90;;;;;;5011088;28;20040;-59
2023/02/20 03:00:44;;;;;;;25.47;12.60;;;5.30;99.90;;;;;;4993462;28;20176;-58
2023/02/20 03:03:31;;;;;;;30.27;13.17;;;5.30;99.90;;;;;;5011421;28;20482;-58
2023/02/20 03:06:05;;;;;;;27.57;13.67;;;5.30;99.90;;;;;;5011421;28;20069;-59
2023/02/20 03:08:56;;;;;;;34.80;14.13;;;5.30;99.90;;;;;;5010901;28;20100;-58
2023/02/20 03:11:24;;;;;;;28.00;13.97;;;5.20;99.90;;;;;;5011028;28;20034;-59
2023/02/20 03:17:02;;;;;;;31.40;13.33;;;5.20;99.90;;;;;;4993353;28;20149;-57
2023/02/20 03:19:44;;;;;;;30.30;14.17;;;5.30;99.90;;;;;;5011133;28;20113;-58
2023/02/20 03:22:23;;;;;;;31.63;12.63;;;5.20;99.90;;;;;;4993413;28;20045;-58
2023/02/20 03:24:55;;;;;;;27.55;13.40;;;5.30;99.90;;;;;;5010657;28;20030;-58
2023/02/20 03:27:44;;;;;;;29.80;13.37;;;5.30;99.90;;;;;;4993311;28;20092;-57
2023/02/20 03:30:18;;;;;;;27.77;12.93;;;5.30;99.90;;;;;;4993189;28;20041;-58
2023/02/20 03:43:53;;;;;;;29.73;13.23;;;5.40;99.90;;;;;;4993035;28;20030;-58
2023/02/20 03:46:24;;;;;;;29.33;12.37;;;5.40;99.90;;;;;;4993291;28;20030;-58
2023/02/20 03:48:56;;;;;;;30.73;11.80;;;5.50;99.90;;;;;;4993236;28;20084;-58
2023/02/20 03:51:23;;;;;;;30.93;12.77;;;5.40;99.90;;;;;;4993358;28;20077;-58
2023/02/20 03:53:59;;;;;;;30.47;12.40;;;5.40;99.90;;;;;;4993180;28;20033;-58
2023/02/20 03:56:33;;;;;;;29.47;12.70;;;5.40;99.90;;;;;;4993040;28;20030;-59
2023/02/20 03:59:11;;;;;;;26.20;11.80;;;5.40;99.90;;;;;;4993332;28;20161;-59
2023/02/20 04:01:38;;;;;;;29.90;12.17;;;5.40;99.90;;;;;;4993414;28;20080;-58
2023/02/20 04:04:06;;;;;;;29.77;11.43;;;5.30;99.90;;;;;;4993270;28;20034;-58
2023/02/20 04:06:34;;;;;;;28.17;12.30;;;5.30;99.90;;;;;;4993232;28;20044;-57
2023/02/20 04:09:05;;;;;;;26.93;11.07;;;5.20;99.90;;;;;;5009504;28;20378;-58
2023/02/20 04:11:53;;;;;;;25.70;10.80;;;5.20;99.90;;;;;;5036180;22;20093;-59
2023/02/20 04:14:22;;;;;;;25.87;11.63;;;5.20;99.90;;;;;;5071969;28;20020;-59
2023/02/20 04:16:56;;;;;;;24.73;11.77;;;5.10;99.90;;;;;;5072205;28;20366;-59
2023/02/20 04:19:22;;;;;;;25.00;10.97;;;5.10;99.90;;;;;;5089098;28;20530;-59
2023/02/20 04:21:58;;;;;;;27.07;11.93;;;5.20;99.90;;;;;;5088892;28;20020;-59
2023/02/20 04:24:45;;;;;;;24.17;10.73;;;5.20;99.90;;;;;;5072255;28;20395;-59
2023/02/20 04:27:11;;;;;;;26.70;10.97;;;5.20;99.90;;;;;;5072017;28;20028;-59
2023/02/20 04:29:44;;;;;;;26.97;10.50;;;5.20;99.90;;;;;;5071790;28;20119;-59
2023/02/20 04:32:11;;;;;;;27.80;10.93;;;5.20;99.90;;;;;;5071919;28;20036;-59
2023/02/20 04:34:37;;;;;;;25.10;10.40;;;5.20;99.90;;;;;;5073216;28;20031;-59
2023/02/20 04:37:08;;;;;;;21.40;9.70;;;5.20;99.90;;;;;;5075485;28;20020;-59
2023/02/20 04:39:34;;;;;;;20.73;8.70;;;5.20;99.90;;;;;;5075675;28;20032;-59
2023/02/20 04:42:00;;;;;;;23.87;9.13;;;5.20;99.90;;;;;;5075455;28;20041;-60
2023/02/20 04:44:33;;;;;;;21.07;9.60;;;5.20;99.90;;;;;;5075152;28;20036;-59
2023/02/20 04:47:03;;;;;;;21.80;8.90;;;5.20;99.90;;;;;;5075331;28;20565;-59
2023/02/20 04:49:29;;;;;;;21.23;9.17;;;5.20;99.90;;;;;;5075412;28;20031;-59
2023/02/20 04:51:58;;;;;;;22.00;9.63;;;5.20;99.90;;;;;;5075400;28;20063;-59
2023/02/20 04:54:24;;;;;;;21.67;9.40;;;5.10;99.90;;;;;;5075216;28;20510;-59
2023/02/20 04:56:50;;;;;;;18.60;9.00;;;5.10;99.90;;;;;;5075023;28;20115;-59
2023/02/20 04:59:17;;;;;;;19.97;8.47;;;5.10;99.90;;;;;;5075249;28;20393;-59
2023/02/20 05:01:47;;;;;;;21.43;8.10;;;5.10;99.90;;;;;;5075327;28;20067;-59
2023/02/20 05:04:17;;;;;;;22.63;8.00;;;5.10;99.90;;;;;;5093259;28;20092;-59
2023/02/20 05:06:46;;;;;;;21.10;8.27;;;5.10;99.90;;;;;;5093157;28;20104;-59
2023/02/20 05:09:13;;;;;;;22.58;8.93;;;5.10;99.90;;;;;;5093168;28;20063;-59
2023/02/20 05:11:39;;;;;;;20.47;8.90;;;5.20;99.90;;;;;;5092988;28;20039;-59
2023/02/20 05:14:05;;;;;;;24.97;8.37;;;5.20;99.90;;;;;;5092969;28;20024;-59
2023/02/20 05:16:31;;;;;;;21.17;8.10;;;5.20;99.90;;;;;;5092963;28;20028;-59
2023/02/20 05:18:56;;;;;;;24.37;8.50;;;5.20;99.90;;;;;;5093068;28;20040;-59
2023/02/20 05:24:07;;;;;;;23.73;10.20;;;5.30;99.90;;;;;;5092689;28;20051;-59
2023/02/20 05:26:32;;;;;;;22.27;9.03;;;5.50;99.90;;;;;;5092740;28;20035;-59
2023/02/20 05:28:58;;;;;;;22.37;8.70;;;5.50;99.90;;;;;;5094676;28;20028;-60
2023/02/20 05:31:24;;;;;;;21.53;9.27;;;5.60;99.90;;;;;;5095499;28;20113;-59
2023/02/20 05:33:49;;;;;;;24.13;8.70;;;5.70;99.90;;;;;;5093712;28;20437;-60
2023/02/20 05:36:16;;;;;;;20.47;8.80;;;5.80;99.90;;;;;;5092847;28;20043;-59
2023/02/20 05:38:46;;;;;;;20.83;8.63;;;5.80;99.90;;;;;;5092369;28;20047;-59
2023/02/20 05:41:16;;;;;;;19.93;8.20;;;5.80;99.90;;;;;;5092715;28;20397;-59
2023/02/20 05:43:41;;;;;;;;;;;5.80;99.90;;;;;;5093086;28;20110;-59
2023/02/20 05:46:07;;;;;;;21.37;8.47;;;5.80;99.90;;;;;;5091929;28;19915;-59
2023/02/20 05:48:33;;;;;;;19.00;8.70;;;5.80;99.90;;;;;;5092203;28;20302;-59
2023/02/20 05:50:59;;;;;;;19.93;7.80;;;5.80;99.90;;;;;;5092685;28;20034;-59
2023/02/20 05:53:29;;;;;;;18.20;8.10;;;5.80;99.90;;;;;;5092503;28;20058;-59
2023/02/20 05:55:55;;;;;;;19.20;8.50;;;5.80;99.90;;;;;;5092297;28;20028;-59
2023/02/20 05:58:21;;;;;;;18.67;8.87;;;5.90;99.90;;;;;;5092429;28;20039;-59
2023/02/20 06:00:47;;;;;;;21.07;9.20;;;5.90;99.90;;;;;;5092134;28;20081;-59
2023/02/20 06:03:14;;;;;;;21.00;9.67;;;5.80;99.90;;;;;;5092140;28;20438;-59
2023/02/20 06:05:39;;;;;;;25.47;9.17;;;5.90;99.90;;;;;;5091945;28;20051;-59
2023/02/20 06:08:05;;;;;;;18.37;8.80;;;5.90;99.90;;;;;;5091943;28;20071;-59
2023/02/20 06:10:31;;;;;;;20.47;9.30;;;5.90;99.90;;;;;;5074117;28;20030;-59
2023/02/20 06:12:56;;;;;;;26.07;10.13;;;5.90;99.90;;;;;;5091833;28;20423;-59
2023/02/20 06:15:22;;;;;;;21.33;10.47;;;5.80;99.90;;;;;;5073786;28;20032;-59
2023/02/20 06:17:48;;;;;;;21.17;10.30;;;5.90;99.90;;;;;;5091726;28;20066;-59
2023/02/20 06:20:14;;;;;;;21.97;10.93;;;5.90;99.90;;;;;;5091802;28;20028;-59
2023/02/20 06:22:40;;;;;;;23.53;10.70;;;5.90;99.90;;;;;;5092025;28;20036;-59
2023/02/20 06:25:06;;;;;;;25.60;10.83;;;5.90;99.90;;;;;;5091844;28;20515;-59
2023/02/20 06:27:32;;;;;;;23.10;10.57;;;5.80;99.90;;;;;;5091776;28;20427;-59
2023/02/20 06:29:58;;;;;;;27.20;11.63;;;5.90;99.90;;;;;;5091681;28;20024;-59
2023/02/20 06:32:24;;;;;;;23.57;11.70;;;5.90;99.90;;;;;;5091754;28;20035;-59
2023/02/20 06:34:50;;;;;;;23.63;12.23;;;5.90;99.90;;;;;;5091472;28;20034;-59
2023/02/20 06:37:16;;;;;;;25.13;11.17;;;5.90;99.90;;;;;;5091541;28;20384;-59
2023/02/20 06:39:44;;;;;;;24.80;10.70;;;5.90;99.90;;;;;;5091525;28;20040;-59
2023/02/20 06:42:10;;;;;;;23.07;10.90;;;6.00;99.90;;;;;;5091378;28;20031;-59
2023/02/20 06:44:37;;;;;;;21.73;10.90;;;6.00;99.90;;;;;;5091419;28;20451;-59
2023/02/20 06:47:07;;;;;;;21.17;11.80;;;6.00;99.90;;;;;;5091319;28;20032;-59
2023/02/20 06:49:34;;;;;;;21.97;11.80;;;5.90;99.90;;;;;;5091212;28;20072;-59
2023/02/20 06:52:00;;;;;;;21.37;11.67;;;5.90;99.90;;;;;;5091216;28;20392;-58
2023/02/20 06:54:26;;;;;;;28.33;12.50;;;6.00;99.90;;;;;;5091218;28;20032;-59
2023/02/20 06:56:52;;;;;;;27.20;12.23;;;6.00;99.90;;;;;;5091097;28;20069;-58
2023/02/20 06:59:18;;;;;;;30.00;13.03;;;6.00;99.90;;;;;;5090398;28;20028;-59
2023/02/20 07:01:43;;;;;;;27.43;12.70;;;6.00;99.90;;;;;;5091155;28;20028;-59
2023/02/20 07:04:21;;;;;;;24.50;12.80;;;5.90;99.90;;;;;;5090899;28;20042;-58
2023/02/20 07:06:47;;;;;;;28.67;13.57;;;6.00;99.90;;;;;;5090988;28;20059;-58
2023/02/20 07:09:14;;;;;;;25.33;12.83;;;5.90;99.90;;;;;;5090953;28;20074;-59
2023/02/20 07:11:39;;;;;;;33.30;14.50;;;5.90;99.90;;;;;;5090992;28;20028;-58
2023/02/20 07:14:05;;;;;;;30.13;15.63;;;6.00;99.90;;;;;;5090732;28;20036;-58
2023/02/20 07:16:31;;;;;;;30.70;14.50;;;6.00;99.90;;;;;;5090718;28;20130;-59
2023/02/20 07:18:57;;;;;;;28.43;13.67;;;6.00;99.90;;;;;;5090945;28;20346;-58
2023/02/20 07:21:23;;;;;;;31.97;15.20;;;6.00;99.90;;;;;;5090784;28;20032;-59
2023/02/20 07:23:48;;;;;;;29.83;15.03;;;6.00;99.90;;;;;;5090655;28;20125;-59
2023/02/20 07:26:23;;;;;;;31.67;15.07;;;6.00;99.90;;;;;;5091153;28;20388;-59
2023/02/20 07:28:49;;;;;;;28.83;14.57;;;6.00;99.90;;;;;;5090770;28;20047;-59
2023/02/20 07:31:14;;;;;;;34.07;15.63;;;6.10;99.90;;;;;;5090523;28;20032;-59
2023/02/20 07:33:42;;;;;;;29.70;15.80;;;6.10;99.90;;;;;;5090524;28;20035;-58
2023/02/20 07:36:12;;;;;;;32.70;15.47;;;6.10;99.90;;;;;;5090763;28;20400;-58
2023/02/20 07:38:39;;;;;;;32.70;16.27;;;6.10;99.90;;;;;;5090369;28;20043;-60
2023/02/20 07:41:05;;;;;;;30.30;14.93;;;6.10;99.90;;;;;;5090345;28;20063;-58
2023/02/20 07:43:31;;;;;;;27.27;14.40;;;6.10;99.90;;;;;;5090294;28;20032;-58
2023/02/20 07:45:57;;;;;;;24.03;13.73;;;6.20;99.90;;;;;;5090559;28;20544;-58
2023/02/20 07:48:23;;;;;;;30.53;14.50;;;6.30;99.90;;;;;;5090257;28;20072;-58
2023/02/20 07:50:48;;;;;;;29.30;14.20;;;6.30;99.90;;;;;;5090433;28;20354;-59
2023/02/20 07:53:17;;;;;;;27.10;13.07;;;6.30;99.90;;;;;;5090488;28;20032;-59
2023/02/20 07:55:43;;;;;;;26.02;14.20;;;6.40;99.90;;;;;;5090423;28;20111;-59
2023/02/20 07:58:09;;;;;;;33.97;15.23;;;6.30;99.90;;;;;;5090019;28;20139;-59
2023/02/20 08:00:35;;;;;;;30.27;13.87;;;6.30;99.90;;;;;;5090470;28;20047;-59
2023/02/20 08:03:00;;;;;;;25.10;13.53;;;6.30;99.90;;;;;;5090523;28;20028;-58
2023/02/20 08:05:27;;;;;;;30.60;13.80;;;6.40;99.90;;;;;;5090376;28;20443;-59
2023/02/20 08:07:53;;;;;;;27.30;14.00;;;6.50;99.90;;;;;;5090220;28;20032;-60
2023/02/20 08:10:25;;;;;;;28.27;13.93;;;6.50;99.90;;;;;;5092896;28;20031;-57
2023/02/20 08:12:52;;;;;;;24.70;13.73;;;6.60;99.90;;;;;;5094227;28;20040;-58
2023/02/20 08:15:18;;;;;;;28.10;14.10;;;6.60;99.90;;;;;;5094219;28;20078;-58
2023/02/20 08:17:44;;;;;;;30.27;14.37;;;6.60;99.90;;;;;;5094286;28;20271;-59
2023/02/20 08:20:11;;;;;;;31.13;14.53;;;6.60;99.90;;;;;;5094043;28;20071;-60
2023/02/20 08:22:37;;;;;;;26.90;14.03;;;6.70;99.90;;;;;;5094225;28;20377;-58
2023/02/20 08:25:04;;;;;;;27.57;14.03;;;6.70;99.90;;;;;;5094314;28;20039;-59
2023/02/20 08:27:31;;;;;;;30.80;14.53;;;6.80;99.90;;;;;;5075602;28;20032;-59
2023/02/20 08:29:57;;;;;;;31.17;13.30;;;6.80;99.90;;;;;;5093981;28;20056;-58
2023/02/20 08:32:23;;;;;;;28.07;13.90;;;6.90;99.90;;;;;;5093822;28;20057;-58
2023/02/20 08:34:49;;;;;;;27.70;13.07;;;6.90;99.90;;;;;;5093889;28;20302;-59
2023/02/20 08:37:15;;;;;;;31.33;13.63;;;6.90;99.90;;;;;;5093589;28;20225;-59
2023/02/20 08:39:41;;;;;;;27.07;12.63;;;7.00;99.90;;;;;;5093750;28;20032;-58
2023/02/20 08:42:06;;;;;;;28.57;13.97;;;7.00;99.90;;;;;;5093559;28;20039;-58
2023/02/20 08:44:32;;;;;;;28.53;12.83;;;7.10;99.90;;;;;;5093779;28;20024;-59
2023/02/20 08:46:58;;;;;;;26.00;12.70;;;7.10;99.90;;;;;;5093639;28;20472;-59
2023/02/20 08:49:23;;;;;;;30.83;12.93;;;7.20;99.90;;;;;;5093463;28;20172;-59
2023/02/20 08:51:54;;;;;;;26.47;13.27;;;7.20;99.90;;;;;;5093552;28;20450;-59
2023/02/20 08:54:19;;;;;;;25.60;12.63;;;7.20;99.90;;;;;;5093253;28;20024;-59
2023/02/20 08:56:45;;;;;;;24.23;12.57;;;7.20;99.90;;;;;;5093172;28;20035;-58
2023/02/20 08:59:11;;;;;;;25.60;12.97;;;7.20;99.90;;;;;;5093347;28;20115;-59
2023/02/20 09:01:40;;;;;;;27.33;13.47;;;7.20;99.90;;;;;;5093308;28;20028;-59
2023/02/20 09:04:07;;;;;;;;;;;7.20;99.90;;;;;;5093756;28;20039;-59
2023/02/20 09:06:33;;;;;;;23.57;11.63;;;7.20;99.90;;;;;;5093061;28;20315;-59
2023/02/20 09:08:59;;;;;;;27.53;13.07;;;7.20;99.90;;;;;;5093000;28;20068;-58
2023/02/20 09:11:25;;;;;;;28.33;12.37;;;7.20;99.90;;;;;;5093210;28;20082;-58
2023/02/20 09:13:51;;;;;;;27.73;12.03;;;7.20;99.90;;;;;;5092742;28;20032;-58
2023/02/20 09:16:20;;;;;;;27.50;11.63;;;7.20;99.90;;;;;;5074741;28;20028;-58
2023/02/20 09:18:46;;;;;;;;;;;7.30;99.90;;;;;;5093617;28;20036;-59
2023/02/20 09:21:15;;;;;;;34.13;13.50;;;7.30;99.90;;;;;;5091848;28;19957;-58
2023/02/20 09:23:40;;;;;;;26.70;12.83;;;7.30;99.90;;;;;;5092665;28;20039;-60
2023/02/20 09:26:07;;;;;;;23.60;12.40;;;7.40;99.90;;;;;;5092864;28;20033;-59
2023/02/20 09:28:32;;;;;;;25.27;12.43;;;7.40;99.90;;;;;;5092612;28;20039;-59
2023/02/20 09:30:59;;;;;;;25.87;12.87;;;7.50;99.90;;;;;;5092687;28;20028;-59
2023/02/20 09:33:26;;;;;;;28.53;13.63;;;7.50;99.90;;;;;;5092594;28;20047;-59
2023/02/20 09:35:53;;;;;;;26.77;13.00;;;7.40;99.90;;;;;;5092694;28;20032;-59
2023/02/20 09:38:25;;;;;;;24.80;12.80;;;7.40;99.90;;;;;;5092375;28;20070;-59
2023/02/20 09:40:54;;;;;;;23.57;12.33;;;7.50;99.90;;;;;;5092523;28;20039;-59
2023/02/20 09:43:37;;;;;;;29.13;13.10;;;7.50;99.90;;;;;;5092345;28;20150;-59
2023/02/20 09:46:16;;;;;;;23.57;12.53;;;7.50;99.90;;;;;;5092456;28;20039;-59
2023/02/20 09:48:50;;;;;;;23.77;11.13;;;7.50;99.90;;;;;;5092213;28;20036;-59
2023/02/20 09:51:23;;;;;;;25.67;13.03;;;7.50;99.90;;;;;;5092357;28;20028;-59
2023/02/20 09:54:01;;;;;;;24.27;12.20;;;7.60;99.90;;;;;;5092218;28;20024;-60
2023/02/20 09:56:37;;;;;;;26.90;12.07;;;7.50;99.90;;;;;;5092196;28;20044;-60
2023/02/20 09:59:05;;;;;;;26.13;11.93;;;7.60;99.90;;;;;;5092235;28;20036;-59
2023/02/20 10:01:33;;;;;;;20.30;11.17;;;7.60;99.90;;;;;;5092245;28;20072;-59
2023/02/20 10:04:16;;;;;;;21.30;11.23;;;7.60;99.90;;;;;;5092125;28;20283;-60
2023/02/20 10:06:44;;;;;;;25.53;10.90;;;7.70;99.90;;;;;;5091940;28;20043;-59
2023/02/20 10:09:13;;;;;;;22.33;10.70;;;7.60;99.90;;;;;;5092054;28;20028;-59
2023/02/20 10:11:49;;;;;;;;;;;7.70;99.90;;;;;;5101833;22;20040;-56
2023/02/20 10:14:54;;;;;;;20.97;10.03;;;7.70;99.90;;;;;;5071383;28;19973;-57
2023/02/20 10:17:46;;;;;;;22.90;10.20;;;7.70;99.90;;;;;;5062171;28;20404;-57
2023/02/20 10:20:41;;;;;;;20.87;10.17;;;7.80;99.90;;;;;;5047968;28;20618;-58
2023/02/20 10:23:30;;;;;;;19.90;10.03;;;7.80;99.90;;;;;;5042407;28;20036;-58
2023/02/20 10:26:01;;;;;;;23.07;10.43;;;7.80;99.90;;;;;;5051695;28;20078;-54
2023/02/20 10:28:27;;;;;;;22.00;10.50;;;7.80;99.90;;;;;;5051184;28;20551;-58
2023/02/20 10:30:58;;;;;;;21.87;11.27;;;7.80;99.90;;;;;;5051458;28;20060;-56
2023/02/20 10:33:34;;;;;;;20.57;10.23;;;7.80;99.90;;;;;;5051004;28;20025;-56
2023/02/20 10:36:07;;;;;;;23.97;10.03;;;7.80;99.90;;;;;;5051409;28;20029;-54
2023/02/20 10:39:11;;;;;;;21.50;9.90;;;7.90;99.90;;;;;;5051072;28;20392;-57
2023/02/20 10:41:43;;;;;;;26.03;10.73;;;7.90;99.90;;;;;;5027784;28;20041;-57
2023/02/20 10:44:16;;;;;;;20.70;10.27;;;7.90;99.90;;;;;;5051094;28;20036;-56
2023/02/20 10:47:09;;;;;;;19.63;9.87;;;7.90;99.90;;;;;;5051476;28;20415;-55
2023/02/20 10:49:40;;;;;;;20.13;10.20;;;8.00;99.90;;;;;;5051328;28;20040;-56
2023/02/20 10:52:11;;;;;;;23.87;10.00;;;8.00;99.90;;;;;;5050853;28;20029;-57
2023/02/20 10:54:44;;;;;;;24.23;9.70;;;8.00;99.90;;;;;;5050838;28;20029;-57
2023/02/20 10:57:21;;;;;;;22.03;9.63;;;8.10;99.90;;;;;;5050866;28;20021;-54
2023/02/20 10:59:54;;;;;;;20.50;10.73;;;8.20;99.90;;;;;;5050884;28;20052;-56
2023/02/20 11:02:27;;;;;;;24.43;10.57;;;8.20;99.90;;;;;;5050935;28;20031;-57
2023/02/20 11:05:12;;;;;;;21.70;10.37;;;8.20;99.90;;;;;;5050533;28;20075;-58
2023/02/20 11:07:38;;;;;;;22.63;10.60;;;8.20;99.90;;;;;;5050492;28;20386;-57
2023/02/20 11:10:05;;;;;;;25.63;11.30;;;8.20;99.90;;;;;;5050288;28;20078;-57
2023/02/20 11:12:38;;;;;;;27.27;11.67;;;8.30;99.90;;;;;;5050269;28;20044;-57
2023/02/20 11:15:10;;;;;;;22.50;9.77;;;8.30;99.90;;;;;;5050368;28;20047;-57
2023/02/20 11:17:39;;;;;;;25.10;11.23;;;8.30;99.90;;;;;;5050760;28;20339;-57
2023/02/20 11:20:26;;;;;;;20.20;11.13;;;8.20;99.90;;;;;;5050471;28;20029;-57
2023/02/20 11:22:52;;;;;;;22.23;10.10;;;8.10;99.90;;;;;;5050448;28;20470;-56
2023/02/20 11:25:32;;;;;;;23.33;10.27;;;8.10;99.90;;;;;;5050584;28;20033;-55
2023/02/20 11:28:17;;;;;;;19.77;9.63;;;8.20;99.90;;;;;;5050309;28;20041;-57
2023/02/20 11:30:45;;;;;;;20.07;10.53;;;8.10;99.90;;;;;;5050579;28;20041;-56
2023/02/20 11:33:20;;;;;;;20.00;9.60;;;8.10;99.90;;;;;;5050258;28;20027;-54
2023/02/20 11:35:55;;;;;;;19.93;9.97;;;8.10;99.90;;;;;;5050415;28;20044;-57
2023/02/20 11:38:20;;;;;;;23.37;10.87;;;8.10;99.90;;;;;;5050392;28;20037;-56
2023/02/20 11:41:11;;;;;;;20.63;9.87;;;8.10;99.90;;;;;;5050308;28;20039;-54
2023/02/20 11:43:43;;;;;;;21.70;9.97;;;8.10;99.90;;;;;;5043670;28;20411;-56
2023/02/20 11:46:23;;;;;;;19.83;10.43;;;8.10;99.90;;;;;;5050271;28;20033;-57
2023/02/20 11:49:06;;;;;;;22.90;10.50;;;8.20;99.90;;;;;;5050187;28;20063;-55
2023/02/20 11:51:34;;;;;;;20.40;9.73;;;8.10;99.90;;;;;;5050095;28;20032;-56
2023/02/20 11:54:21;;;;;;;24.83;10.60;;;8.10;99.90;;;;;;5050034;28;20035;-55
2023/02/20 11:57:16;;;;;;;21.93;10.90;;;8.10;99.90;;;;;;5050252;28;20102;-54
2023/02/20 11:59:44;;;;;;;23.23;10.23;;;8.20;99.90;;;;;;5049887;28;20043;-57
2023/02/20 12:02:10;;;;;;;24.70;10.27;;;8.20;99.90;;;;;;5050082;28;20040;-55
2023/02/20 12:04:36;;;;;;;26.70;11.60;;;8.20;99.90;;;;;;5049953;28;20435;-55
2023/02/20 12:07:17;;;;;;;25.03;11.23;;;8.20;99.90;;;;;;5050115;28;20060;-56
2023/02/20 12:09:45;;;;;;;19.77;9.80;;;8.20;99.90;;;;;;5049972;28;20037;-57
2023/02/20 12:12:13;;;;;;;23.33;11.13;;;8.20;99.90;;;;;;5049885;28;20080;-56
2023/02/20 12:14:40;;;;;;;27.00;10.90;;;8.20;99.90;;;;;;5049763;28;20029;-55
2023/02/20 12:17:27;;;;;;;23.93;11.43;;;8.20;99.90;;;;;;5049907;28;20036;-55
2023/02/20 12:20:02;;;;;;;25.93;10.97;;;8.20;99.90;;;;;;5049973;28;20057;-55
2023/02/20 12:22:38;;;;;;;20.27;9.73;;;8.20;99.90;;;;;;5032187;28;20025;-55
2023/02/20 12:25:35;;;;;;;21.87;11.00;;;8.20;99.90;;;;;;5049746;28;20029;-56
2023/02/20 12:28:36;;;;;;;20.70;10.60;;;8.20;99.90;;;;;;5049759;28;20292;-56
2023/02/20 12:31:25;;;;;;;24.67;11.27;;;8.20;99.90;;;;;;5049691;28;20044;-57
2023/02/20 12:33:50;;;;;;;25.05;11.48;;;8.20;99.90;;;;;;5049704;28;20066;-58
2023/02/20 12:36:31;;;;;;;23.47;10.67;;;8.20;99.90;;;;;;5049799;28;20025;-56
2023/02/20 12:39:02;;;;;;;25.90;11.30;;;8.30;99.90;;;;;;5049724;28;20450;-57
2023/02/20 12:41:35;;;;;;;24.03;11.40;;;8.30;99.90;;;;;;5049749;28;20082;-57
2023/02/20 12:44:19;;;;;;;21.57;10.50;;;8.20;99.90;;;;;;5049686;28;20393;-56
2023/02/20 12:46:51;;;;;;;26.93;11.33;;;8.20;99.90;;;;;;5049536;28;20037;-57
2023/02/20 12:49:47;;;;;;;21.30;10.40;;;8.20;99.90;;;;;;5049615;28;20033;-57
2023/02/20 12:52:44;;;;;;;24.20;10.67;;;8.20;99.90;;;;;;5049503;28;20028;-56
2023/02/20 12:55:46;;;;;;;22.63;10.23;;;8.20;99.90;;;;;;5049495;28;20029;-57
2023/02/20 12:58:36;;;;;;;21.77;10.77;;;8.20;99.90;;;;;;5015832;28;20120;-57
2023/02/20 13:01:06;;;;;;;23.90;11.03;;;8.20;99.90;;;;;;5053071;28;20017;-57
2023/02/20 13:03:50;;;;;;;22.37;10.20;;;8.30;99.90;;;;;;5052971;28;20065;-60
2023/02/20 13:06:43;;;;;;;21.20;10.83;;;8.20;99.90;;;;;;5053050;28;20055;-56
2023/02/20 13:09:25;;;;;;;20.37;10.27;;;8.30;99.90;;;;;;5053159;28;20440;-57
2023/02/20 13:11:57;;;;;;;20.27;9.93;;;8.30;99.90;;;;;;5052862;28;20120;-56
2023/02/20 13:14:45;;;;;;;22.67;10.37;;;8.40;99.90;;;;;;5053026;28;20025;-57
2023/02/20 13:17:23;;;;;;;21.50;10.75;;;8.40;99.90;;;;;;5031928;28;20043;-56
2023/02/20 13:20:05;;;;;;;24.40;11.33;;;8.40;99.90;;;;;;5052796;28;20389;-55